Pictou, Canada
Current Conditions -  °F | °C
As of 5:00 AM on Sunday 23 Nov 2014 (Local Time) from CYYG Reporting Station
Snow Showers Snow Showers  
Wind Chill: -4°   Ceiling: 4200
Heat Index:   Visibility: 10mi
Dew Point: -1°   Wind: 13mph
Humidity: 87%   Direction: 240°WSW
Pressure: 29.81"   Gusts: 21mph
Location:  45.67°N, 62.7°W
Report Text: CYYG 230900Z 24011G18KT 10SM -SHSN FEW005 BKN042 BKN075 01/M01 A2981 RMK SF2SC3AC1 SLP097
Loading
Personal Weather Stations






























Interactive Weather Map New forecast layout! Learn more

10-Day Weather Forecast

Advertisements
Track Severe Weather on mobile